Archival Weather

Heathrow

London, United Kingdom (EGLL)

Report from: Tuesday, June 18, 2024 12:20 AM BST
Current time: Monday, July 22, 2024 11:18 AM BST

Current weather – Weather history – Daily summaries
Weather forecast

Temperature15.0°C (59.0°F)
Dew point9.0°C (48.2°F)
Winds 3 kts (1.5 m/s, 3.5 mph) Vrb
Winds variableWinds variable from South (180°) to West-Southwest (240°)
Visibility6.2 mi. (10 km)
Clouds Sky clear
Altimeter29.94 in.Hg (1014 mB)
Relative humidity67 %
Density altitude138 ft. (42 m)
Remarks Fully automated report
No clouds detected
No significant changes expected in the next two hours
Flight conditions Visual Meteorological Conditions
Raw dataEGLL 172320Z AUTO 22003KT 180V240 9999 NCD 15/09 Q1014 NOSIG
An error has occurred. This application may no longer respond until reloaded. Reload 🗙